createdAt,value
2022-12-03T00:00:22.031Z,5.67
2022-12-03T00:02:49.318Z,6.73
2022-12-03T00:05:16.679Z,6.83
2022-12-03T00:07:44.028Z,6.87
2022-12-03T00:10:12.132Z,7.70
2022-12-03T00:12:39.553Z,6.77
2022-12-03T00:15:08.184Z,7.33
2022-12-03T00:17:35.376Z,8.47
2022-12-03T00:20:04.261Z,8.20
2022-12-03T00:22:31.556Z,9.50
2022-12-03T00:24:58.692Z,8.03
2022-12-03T00:27:25.894Z,7.27
2022-12-03T00:29:53.163Z,7.30
2022-12-03T00:32:20.422Z,8.00
2022-12-03T00:34:47.704Z,7.37
2022-12-03T00:37:14.885Z,7.10
2022-12-03T00:39:42.126Z,7.00
2022-12-03T00:42:09.328Z,8.20
2022-12-03T00:44:36.520Z,8.10
2022-12-03T00:47:03.993Z,8.03
2022-12-03T00:49:31.654Z,7.20
2022-12-03T00:51:58.849Z,7.77
2022-12-03T00:54:31.598Z,6.83
2022-12-03T00:56:59.499Z,7.60
2022-12-03T00:59:26.793Z,8.60
2022-12-03T01:01:54.120Z,8.13
2022-12-03T01:04:21.667Z,6.93
2022-12-03T01:06:48.936Z,8.00
2022-12-03T01:09:16.083Z,7.07
2022-12-03T01:11:43.293Z,7.57
2022-12-03T01:14:20.431Z,7.20
2022-12-03T01:16:48.987Z,6.77
2022-12-03T01:19:17.847Z,6.60
2022-12-03T01:21:49.254Z,7.33
2022-12-03T01:24:19.731Z,6.87
2022-12-03T01:26:47.176Z,6.17
2022-12-03T01:29:14.813Z,6.50
2022-12-03T01:31:42.082Z,6.73
2022-12-03T01:34:09.604Z,6.87
2022-12-03T01:36:36.854Z,6.10
2022-12-03T01:39:05.067Z,6.40
2022-12-03T01:41:34.151Z,6.30
2022-12-03T01:44:04.423Z,6.03
2022-12-03T01:46:39.660Z,5.77
2022-12-03T01:49:14.060Z,5.63
2022-12-03T01:51:41.457Z,5.60
2022-12-03T01:54:20.192Z,6.00
2022-12-03T01:56:48.334Z,6.10
2022-12-03T01:59:22.936Z,6.00
2022-12-03T02:01:50.852Z,5.57
2022-12-03T02:04:22.718Z,6.13
2022-12-03T02:06:50.130Z,5.70
2022-12-03T02:09:17.349Z,5.37
2022-12-03T02:11:50.555Z,5.93
2022-12-03T02:14:21.932Z,5.47
2022-12-03T02:16:49.400Z,6.00
2022-12-03T02:19:28.393Z,5.80
2022-12-03T02:22:28.368Z,5.23
2022-12-03T02:24:58.963Z,5.70
2022-12-03T02:27:28.535Z,5.67
2022-12-03T02:29:56.069Z,5.87
2022-12-03T02:32:23.530Z,5.83
2022-12-03T02:34:51.451Z,5.97
2022-12-03T02:37:34.493Z,6.33
2022-12-03T02:40:12.516Z,5.70
2022-12-03T02:42:40.075Z,5.60
2022-12-03T02:45:10.947Z,5.87
2022-12-03T02:47:48.493Z,5.50
2022-12-03T02:50:23.679Z,5.43
2022-12-03T02:52:56.245Z,5.40
2022-12-03T02:55:25.378Z,6.67
2022-12-03T02:57:53.034Z,6.23
2022-12-03T03:00:21.560Z,5.93
2022-12-03T03:02:49.457Z,6.27
2022-12-03T03:05:22.398Z,6.57
2022-12-03T03:07:51.565Z,5.90
2022-12-03T03:10:23.406Z,6.23
2022-12-03T03:12:53.839Z,6.23
2022-12-03T03:15:22.701Z,6.00
2022-12-03T03:17:50.073Z,6.10
2022-12-03T03:20:18.815Z,5.90
2022-12-03T03:22:46.406Z,6.17
2022-12-03T03:25:19.507Z,6.13
2022-12-03T03:27:47.158Z,6.87
2022-12-03T03:30:15.617Z,7.37
2022-12-03T03:32:43.245Z,7.03
2022-12-03T03:35:12.117Z,9.30
2022-12-03T03:37:39.827Z,9.70
2022-12-03T03:40:08.854Z,8.87
2022-12-03T03:42:37.965Z,7.97
2022-12-03T03:45:07.832Z,8.23
2022-12-03T03:47:35.385Z,7.57
2022-12-03T03:50:03.232Z,6.07
2022-12-03T03:52:30.460Z,6.40
2022-12-03T03:54:58.360Z,5.70
2022-12-03T03:57:25.745Z,5.30
2022-12-03T03:59:52.962Z,9.53
2022-12-03T04:02:22.951Z,7.83
2022-12-03T04:04:51.847Z,9.17
2022-12-03T04:07:19.277Z,9.83
2022-12-03T04:09:46.722Z,9.00
2022-12-03T04:12:14.117Z,8.07
2022-12-03T04:14:56.478Z,7.13
2022-12-03T04:17:24.012Z,7.93
2022-12-03T04:19:51.335Z,7.70
2022-12-03T04:22:18.643Z,9.33
2022-12-03T04:24:45.989Z,7.27
2022-12-03T04:27:13.196Z,8.37
2022-12-03T04:29:40.447Z,7.13
2022-12-03T04:32:08.191Z,8.90
2022-12-03T04:34:35.583Z,8.77
2022-12-03T04:37:03.543Z,8.70
2022-12-03T04:39:30.782Z,8.73
2022-12-03T04:41:58.032Z,11.10
2022-12-03T04:44:25.288Z,9.20
2022-12-03T04:46:52.552Z,7.73
2022-12-03T04:49:19.686Z,6.70
2022-12-03T04:51:46.814Z,8.80
2022-12-03T04:54:14.143Z,9.13
2022-12-03T04:56:41.363Z,8.53
2022-12-03T04:59:14.241Z,8.20
2022-12-03T05:01:44.273Z,7.47
2022-12-03T05:04:13.442Z,6.73
2022-12-03T05:06:42.255Z,6.73
2022-12-03T05:09:11.062Z,6.60
2022-12-03T05:11:38.815Z,6.83
2022-12-03T05:14:06.558Z,7.07
2022-12-03T05:16:34.322Z,7.40
2022-12-03T05:19:03.972Z,7.43
2022-12-03T05:21:31.840Z,7.83
2022-12-03T05:24:00.321Z,8.10
2022-12-03T05:26:28.188Z,7.97
2022-12-03T05:28:55.881Z,7.83
2022-12-03T05:31:23.236Z,8.73
2022-12-03T05:33:51.317Z,7.77
2022-12-03T05:36:18.747Z,7.63
2022-12-03T05:38:45.953Z,7.33
2022-12-03T05:41:13.223Z,7.33
2022-12-03T05:43:42.362Z,7.23
2022-12-03T05:46:09.751Z,6.07
2022-12-03T05:48:36.945Z,6.93
2022-12-03T05:51:04.282Z,7.17
2022-12-03T05:53:31.527Z,7.03
2022-12-03T05:55:58.729Z,11.07
2022-12-03T05:58:26.065Z,7.40
2022-12-03T06:00:53.343Z,9.57
2022-12-03T06:03:20.731Z,10.87
2022-12-03T06:05:48.073Z,6.70
2022-12-03T06:08:15.517Z,7.80
2022-12-03T06:10:43.314Z,8.63
2022-12-03T06:13:10.753Z,8.90
2022-12-03T06:15:43.440Z,8.87
2022-12-03T06:18:11.801Z,9.00
2022-12-03T06:20:39.210Z,11.87
2022-12-03T06:23:06.428Z,10.83
2022-12-03T06:25:33.732Z,8.80
2022-12-03T06:28:01.016Z,8.90
2022-12-03T06:30:28.578Z,8.93
2022-12-03T06:32:55.855Z,10.03
2022-12-03T06:35:23.577Z,8.67
2022-12-03T06:37:50.841Z,15.73
2022-12-03T06:40:19.692Z,17.50
2022-12-03T06:42:46.974Z,24.93
2022-12-03T06:45:14.318Z,24.90
2022-12-03T06:47:45.025Z,18.97
2022-12-03T06:50:12.991Z,16.90
2022-12-03T06:52:40.458Z,18.90
2022-12-03T06:55:08.468Z,24.87
2022-12-03T06:57:35.847Z,22.60
2022-12-03T07:00:06.885Z,23.27
2022-12-03T07:02:34.072Z,24.37
2022-12-03T07:05:04.568Z,20.93
2022-12-03T07:07:32.245Z,20.37
2022-12-03T07:09:59.551Z,23.27
2022-12-03T07:12:26.779Z,20.77
2022-12-03T07:14:54.999Z,17.93
2022-12-03T07:17:22.497Z,13.37
2022-12-03T07:19:49.871Z,16.57
2022-12-03T07:22:17.030Z,19.97
2022-12-03T07:24:44.187Z,26.93
2022-12-03T07:27:11.402Z,17.87
2022-12-03T07:29:38.651Z,13.67
2022-12-03T07:32:06.346Z,13.53
2022-12-03T07:34:33.598Z,13.67
2022-12-03T07:37:00.920Z,13.07
2022-12-03T07:39:28.284Z,14.80
2022-12-03T07:41:55.614Z,16.73
2022-12-03T07:44:24.014Z,15.30
2022-12-03T07:46:51.796Z,19.93
2022-12-03T07:49:18.966Z,11.33
2022-12-03T07:51:48.809Z,13.33
2022-12-03T07:54:16.583Z,13.37
2022-12-03T07:56:44.573Z,13.23
2022-12-03T07:59:12.191Z,18.13
2022-12-03T08:01:39.525Z,18.53
2022-12-03T08:04:06.910Z,19.43
2022-12-03T08:06:35.077Z,20.27
2022-12-03T08:09:02.392Z,16.40
2022-12-03T08:11:29.837Z,13.33
2022-12-03T08:13:57.530Z,13.00
2022-12-03T08:16:25.109Z,10.40
2022-12-03T08:18:55.813Z,13.17
2022-12-03T08:21:23.473Z,14.03
2022-12-03T08:23:50.911Z,13.70
2022-12-03T08:26:28.056Z,17.03
2022-12-03T08:28:55.481Z,25.30
2022-12-03T08:31:32.815Z,26.37
2022-12-03T08:34:16.558Z,13.03
2022-12-03T08:36:44.257Z,11.47
2022-12-03T08:39:44.394Z,15.10
2022-12-03T08:42:19.978Z,17.17
2022-12-03T08:44:47.636Z,19.03
2022-12-03T08:47:22.452Z,8.30
2022-12-03T08:50:26.699Z,6.87
2022-12-03T08:52:59.331Z,5.87
2022-12-03T08:55:38.533Z,6.23
2022-12-03T08:58:39.932Z,5.00
2022-12-03T09:01:13.455Z,7.20
2022-12-03T09:03:53.904Z,5.20
2022-12-03T09:06:22.520Z,6.53
2022-12-03T09:08:50.120Z,6.17
2022-12-03T09:11:17.356Z,6.83
2022-12-03T09:13:44.579Z,6.20
2022-12-03T09:16:11.781Z,5.47
2022-12-03T09:18:38.923Z,5.53
2022-12-03T09:21:06.455Z,5.70
2022-12-03T09:23:33.740Z,6.63
2022-12-03T09:26:01.028Z,8.47
2022-12-03T09:28:28.302Z,11.67
2022-12-03T09:30:55.933Z,17.20
2022-12-03T09:33:23.507Z,10.30
2022-12-03T09:35:51.290Z,17.73
2022-12-03T09:38:18.483Z,8.30
2022-12-03T09:40:46.116Z,6.00
2022-12-03T09:43:13.503Z,6.27
2022-12-03T09:45:41.003Z,6.23
2022-12-03T09:48:08.769Z,7.60
2022-12-03T09:50:41.939Z,8.00
2022-12-03T09:53:18.152Z,8.03
2022-12-03T09:55:47.227Z,12.73
2022-12-03T09:58:18.918Z,8.87
2022-12-03T10:00:52.132Z,8.60
2022-12-03T10:03:29.743Z,10.63
2022-12-03T10:05:57.990Z,7.43
2022-12-03T10:08:32.011Z,8.10
2022-12-03T10:10:59.792Z,8.10
2022-12-03T10:13:31.157Z,7.70
2022-12-03T10:16:01.402Z,7.33
2022-12-03T10:18:38.268Z,8.53
2022-12-03T10:21:25.550Z,8.23
2022-12-03T10:24:20.689Z,9.17
2022-12-03T10:26:51.102Z,10.00
2022-12-03T10:29:31.562Z,7.03
2022-12-03T10:32:10.650Z,6.93
2022-12-03T10:34:42.310Z,6.23
2022-12-03T10:37:18.181Z,6.03
2022-12-03T10:40:08.746Z,6.43
2022-12-03T10:42:40.819Z,6.20
2022-12-03T10:45:24.367Z,5.50
2022-12-03T10:48:03.866Z,5.30
2022-12-03T10:50:32.265Z,5.27
2022-12-03T10:52:59.745Z,5.50
2022-12-03T10:55:32.622Z,5.63
2022-12-03T10:57:59.900Z,7.37
2022-12-03T11:00:27.180Z,6.53
2022-12-03T11:02:56.939Z,6.40
2022-12-03T11:05:28.614Z,6.40
2022-12-03T11:07:56.744Z,4.60
2022-12-03T11:10:24.685Z,4.93
2022-12-03T11:13:28.741Z,4.83
2022-12-03T11:15:56.433Z,5.50
2022-12-03T11:18:39.191Z,6.17
2022-12-03T11:21:14.035Z,5.60
2022-12-03T11:23:47.229Z,5.13
2022-12-03T11:26:30.111Z,5.93
2022-12-03T11:28:59.423Z,5.53
2022-12-03T11:31:48.430Z,6.07
2022-12-03T11:34:18.852Z,8.13
2022-12-03T11:37:13.903Z,5.77
2022-12-03T11:39:51.058Z,4.83
2022-12-03T11:42:24.562Z,5.60
2022-12-03T11:45:06.556Z,5.43
2022-12-03T11:47:44.197Z,6.10
2022-12-03T11:50:28.156Z,6.17
2022-12-03T11:53:19.452Z,6.13
2022-12-03T11:56:05.919Z,6.20
2022-12-03T11:58:34.507Z,8.33
2022-12-03T12:01:06.824Z,7.17
2022-12-03T12:03:46.054Z,6.47
2022-12-03T12:06:21.665Z,6.50
2022-12-03T12:08:52.084Z,6.13
2022-12-03T12:11:29.888Z,6.20
2022-12-03T12:14:08.517Z,6.00
2022-12-03T12:16:55.138Z,6.60
2022-12-03T12:19:43.426Z,5.93
2022-12-03T12:22:29.047Z,7.47
2022-12-03T12:25:00.216Z,6.40
2022-12-03T12:27:40.111Z,6.23
2022-12-03T12:30:14.850Z,6.83
2022-12-03T12:32:52.206Z,5.90
2022-12-03T12:35:26.239Z,4.73
2022-12-03T12:38:08.139Z,6.60
2022-12-03T12:40:40.149Z,6.40
2022-12-03T12:43:26.810Z,6.53
2022-12-03T12:46:13.580Z,6.40
2022-12-03T12:48:46.159Z,6.53
2022-12-03T12:51:18.515Z,7.30
2022-12-03T12:53:46.197Z,6.00
2022-12-03T12:56:31.563Z,6.00
2022-12-03T12:59:14.383Z,6.77
2022-12-03T13:01:44.550Z,6.67
2022-12-03T13:04:19.694Z,6.30
2022-12-03T13:06:51.101Z,7.50
2022-12-03T13:09:27.228Z,7.23
2022-12-03T13:12:02.472Z,6.47
2022-12-03T13:14:37.484Z,6.07
2022-12-03T13:17:19.439Z,6.40
2022-12-03T13:19:50.676Z,6.50
2022-12-03T13:22:23.503Z,6.90
2022-12-03T13:24:53.128Z,7.40
2022-12-03T13:27:20.242Z,7.77
2022-12-03T13:30:01.565Z,7.53
2022-12-03T13:32:36.142Z,7.00
2022-12-03T13:35:18.605Z,8.43
2022-12-03T13:37:45.792Z,66.03
2022-12-03T13:40:21.594Z,19.50
2022-12-03T13:42:48.812Z,8.33
2022-12-03T13:45:18.723Z,7.03
2022-12-03T13:47:55.943Z,6.90
2022-12-03T13:50:42.239Z,7.67
2022-12-03T13:53:29.366Z,7.97
2022-12-03T13:56:32.954Z,7.67
2022-12-03T13:59:01.548Z,6.67
2022-12-03T14:01:29.539Z,7.23
2022-12-03T14:03:57.386Z,8.03
2022-12-03T14:06:24.637Z,7.43
2022-12-03T14:08:51.832Z,9.30
2022-12-03T14:11:19.098Z,11.27
2022-12-03T14:13:46.274Z,11.03
2022-12-03T14:16:13.491Z,10.17
2022-12-03T14:18:40.728Z,9.07
2022-12-03T14:21:07.969Z,20.17
2022-12-03T14:23:35.247Z,10.00
2022-12-03T14:26:02.487Z,8.13
2022-12-03T14:28:29.671Z,7.37
2022-12-03T14:30:56.916Z,7.60
2022-12-03T14:33:24.465Z,8.40
2022-12-03T14:35:51.632Z,9.40
2022-12-03T14:38:18.952Z,8.30
2022-12-03T14:40:46.254Z,8.23
2022-12-03T14:43:13.408Z,7.33
2022-12-03T14:45:40.660Z,8.67
2022-12-03T14:48:07.874Z,22.53
2022-12-03T14:50:34.997Z,13.17
2022-12-03T14:53:02.184Z,9.23
2022-12-03T14:55:29.527Z,7.83
2022-12-03T14:57:56.694Z,8.20
2022-12-03T15:00:23.858Z,8.90
2022-12-03T15:02:50.994Z,13.07
2022-12-03T15:05:20.021Z,12.80
2022-12-03T15:07:49.365Z,8.43
2022-12-03T15:10:17.131Z,8.87
2022-12-03T15:12:44.304Z,8.17
2022-12-03T15:15:11.680Z,13.07
2022-12-03T15:17:38.883Z,14.67
2022-12-03T15:20:07.172Z,12.53
2022-12-03T15:22:34.291Z,18.37
2022-12-03T15:25:01.571Z,9.00
2022-12-03T15:27:28.732Z,8.20
2022-12-03T15:29:56.275Z,7.57
2022-12-03T15:32:23.619Z,8.93
2022-12-03T15:34:50.811Z,9.13
2022-12-03T15:37:18.415Z,8.00
2022-12-03T15:39:48.660Z,7.70
2022-12-03T15:42:16.100Z,10.37
2022-12-03T15:44:43.238Z,9.23
2022-12-03T15:47:10.467Z,8.37
2022-12-03T15:49:37.673Z,8.07
2022-12-03T15:52:05.005Z,8.67
2022-12-03T15:54:32.141Z,7.70
2022-12-03T15:56:59.728Z,8.53
2022-12-03T15:59:26.889Z,8.23
2022-12-03T16:02:01.861Z,8.10
2022-12-03T16:04:33.206Z,12.77
2022-12-03T16:07:00.506Z,11.63
2022-12-03T16:09:27.905Z,10.47
2022-12-03T16:11:55.352Z,10.20
2022-12-03T16:14:23.144Z,11.43
2022-12-03T16:16:52.227Z,12.50
2022-12-03T16:19:19.442Z,9.10
2022-12-03T16:21:46.688Z,11.27
2022-12-03T16:24:13.901Z,16.80
2022-12-03T16:26:42.190Z,14.63
2022-12-03T16:29:09.462Z,10.43
2022-12-03T16:31:36.867Z,9.90
2022-12-03T16:34:04.158Z,9.87
2022-12-03T16:36:31.495Z,12.33
2022-12-03T16:38:58.796Z,13.67
2022-12-03T16:41:26.422Z,11.53
2022-12-03T16:43:53.752Z,11.17
2022-12-03T16:46:21.244Z,9.60
2022-12-03T16:48:49.181Z,9.03
2022-12-03T16:51:17.196Z,8.57
2022-12-03T16:53:44.335Z,8.43
2022-12-03T16:56:11.772Z,9.30
2022-12-03T16:58:39.307Z,9.40
2022-12-03T17:01:07.350Z,9.63
2022-12-03T17:03:35.725Z,8.87
2022-12-03T17:06:03.922Z,9.27
2022-12-03T17:08:31.740Z,8.73
2022-12-03T17:10:59.018Z,10.83
2022-12-03T17:13:26.224Z,10.67
2022-12-03T17:15:53.453Z,10.77
2022-12-03T17:18:20.658Z,10.43
2022-12-03T17:20:47.856Z,9.00
2022-12-03T17:23:14.997Z,24.83
2022-12-03T17:25:42.088Z,13.43
2022-12-03T17:28:09.518Z,12.03
2022-12-03T17:30:36.847Z,10.30
2022-12-03T17:33:04.145Z,9.70
2022-12-03T17:35:31.459Z,8.30
2022-12-03T17:37:58.829Z,8.33
2022-12-03T17:40:25.958Z,9.87
2022-12-03T17:42:53.098Z,13.13
2022-12-03T17:45:20.470Z,9.87
2022-12-03T17:47:47.965Z,8.57
2022-12-03T17:50:15.532Z,8.57
2022-12-03T17:52:42.656Z,7.60
2022-12-03T17:55:13.959Z,8.33
2022-12-03T17:57:43.386Z,9.17
2022-12-03T18:00:11.742Z,7.93
2022-12-03T18:02:39.980Z,8.37
2022-12-03T18:05:07.590Z,8.67
2022-12-03T18:07:35.811Z,8.10
2022-12-03T18:10:06.152Z,8.10
2022-12-03T18:12:36.692Z,8.03
2022-12-03T18:15:05.409Z,8.13
2022-12-03T18:17:32.823Z,8.00
2022-12-03T18:20:11.156Z,7.93
2022-12-03T18:22:43.807Z,9.43
2022-12-03T18:25:12.692Z,8.83
2022-12-03T18:27:39.967Z,7.90
2022-12-03T18:30:08.136Z,8.10
2022-12-03T18:32:35.695Z,7.63
2022-12-03T18:35:03.161Z,7.83
2022-12-03T18:37:31.976Z,7.57
2022-12-03T18:40:00.602Z,7.70
2022-12-03T18:42:28.478Z,7.00
2022-12-03T18:44:59.383Z,6.33
2022-12-03T18:47:29.817Z,6.93
2022-12-03T18:49:57.771Z,7.77
2022-12-03T18:52:25.394Z,7.37
2022-12-03T18:54:53.163Z,6.53
2022-12-03T18:57:20.548Z,7.13
2022-12-03T18:59:47.835Z,7.63
2022-12-03T19:05:09.417Z,7.50
2022-12-03T19:07:37.048Z,7.00
2022-12-03T19:10:05.383Z,7.40
2022-12-03T19:12:33.585Z,8.03
2022-12-03T19:15:01.555Z,8.50
2022-12-03T19:17:28.969Z,8.77
2022-12-03T19:19:56.530Z,11.27
2022-12-03T19:22:25.392Z,11.93
2022-12-03T19:24:52.850Z,10.27
2022-12-03T19:27:20.034Z,9.30
2022-12-03T19:29:50.369Z,9.37
2022-12-03T19:32:17.742Z,8.43
2022-12-03T19:34:45.030Z,9.13
2022-12-03T19:37:12.575Z,11.90
2022-12-03T19:39:39.780Z,9.83
2022-12-03T19:42:08.235Z,9.27
2022-12-03T19:44:35.771Z,7.63
2022-12-03T19:47:02.935Z,7.53
2022-12-03T19:49:30.134Z,7.70
2022-12-03T19:51:57.346Z,7.70
2022-12-03T19:54:24.533Z,8.97
2022-12-03T19:56:51.761Z,8.60
2022-12-03T19:59:18.962Z,9.00
2022-12-03T20:01:46.252Z,9.07
2022-12-03T20:04:15.598Z,9.60
2022-12-03T20:06:42.759Z,9.43
2022-12-03T20:09:14.571Z,10.33
2022-12-03T20:11:42.688Z,9.43
2022-12-03T20:14:15.008Z,8.43
2022-12-03T20:16:43.384Z,8.10
2022-12-03T20:19:15.499Z,7.97
2022-12-03T20:21:44.233Z,8.30
2022-12-03T20:24:16.640Z,7.87
2022-12-03T20:26:44.202Z,7.97
2022-12-03T20:29:11.419Z,7.50
2022-12-03T20:31:38.637Z,7.90
2022-12-03T20:34:06.075Z,8.40
2022-12-03T20:36:33.414Z,8.67
2022-12-03T20:39:04.653Z,8.87
2022-12-03T20:41:35.602Z,8.57
2022-12-03T20:44:03.698Z,8.63
2022-12-03T20:46:32.052Z,8.20
2022-12-03T20:49:00.049Z,9.70
2022-12-03T20:51:30.125Z,9.10
2022-12-03T20:53:59.651Z,8.23
2022-12-03T20:56:34.645Z,10.77
2022-12-03T20:59:10.675Z,7.27
2022-12-03T21:01:38.637Z,7.20
2022-12-03T21:04:08.371Z,6.97
2022-12-03T21:06:37.276Z,6.93
2022-12-03T21:09:06.672Z,6.90
2022-12-03T21:11:35.012Z,7.60
2022-12-03T21:14:03.154Z,7.83
2022-12-03T21:17:05.758Z,8.00
2022-12-03T21:19:21.219Z,7.33
2022-12-03T21:21:48.674Z,7.40
2022-12-03T21:24:16.071Z,7.40
2022-12-03T21:26:43.316Z,6.77
2022-12-03T21:29:10.667Z,7.50
2022-12-03T21:31:37.872Z,7.57
2022-12-03T21:34:05.335Z,10.10
2022-12-03T21:36:32.814Z,6.77
2022-12-03T21:39:00.315Z,6.23
2022-12-03T21:41:27.638Z,7.27
2022-12-03T21:43:54.778Z,6.87
2022-12-03T21:47:12.529Z,5.53
2022-12-03T21:49:09.054Z,5.27
2022-12-03T21:51:36.404Z,5.40
2022-12-03T21:54:03.844Z,5.40
2022-12-03T21:56:30.969Z,5.70
2022-12-03T21:58:58.071Z,5.63
2022-12-03T22:01:25.602Z,5.63
2022-12-03T22:03:53.156Z,5.73
2022-12-03T22:06:20.449Z,5.23
2022-12-03T22:08:49.537Z,5.40
2022-12-03T22:11:21.933Z,5.37
2022-12-03T22:13:50.199Z,6.00
2022-12-03T22:16:20.450Z,5.30
2022-12-03T22:18:48.589Z,4.97
2022-12-03T22:21:19.814Z,4.30
2022-12-03T22:23:47.092Z,4.27
2022-12-03T22:26:17.663Z,4.10
2022-12-03T22:28:49.738Z,4.53
2022-12-03T22:31:19.055Z,4.50
2022-12-03T22:33:46.412Z,4.43
2022-12-03T22:36:20.573Z,4.30
2022-12-03T22:38:50.225Z,4.67
2022-12-03T22:41:19.493Z,3.77
2022-12-03T22:43:48.442Z,4.10
2022-12-03T22:46:17.183Z,3.83
2022-12-03T22:48:46.838Z,4.03
2022-12-03T22:51:20.892Z,4.10
2022-12-03T22:53:53.450Z,4.40
2022-12-03T22:56:20.652Z,4.87
2022-12-03T22:58:48.275Z,4.67
2022-12-03T23:01:24.732Z,4.37
2022-12-03T23:03:52.268Z,4.30
2022-12-03T23:06:20.849Z,4.97
2022-12-03T23:08:48.429Z,4.10
2022-12-03T23:11:16.732Z,4.20
2022-12-03T23:13:43.984Z,4.17
2022-12-03T23:16:20.055Z,4.40
2022-12-03T23:18:47.370Z,4.23
2022-12-03T23:21:28.625Z,4.30
2022-12-03T23:23:58.800Z,3.73
2022-12-03T23:26:26.542Z,4.00
2022-12-03T23:28:53.823Z,3.40
2022-12-03T23:31:26.797Z,4.00
2022-12-03T23:33:55.625Z,3.87
2022-12-03T23:36:24.879Z,3.97
2022-12-03T23:38:52.399Z,3.43
2022-12-03T23:41:22.750Z,3.80
2022-12-03T23:43:50.084Z,3.97
2022-12-03T23:46:21.766Z,4.00
2022-12-03T23:48:50.207Z,3.83
2022-12-03T23:51:22.567Z,3.93
2022-12-03T23:53:50.567Z,3.70
2022-12-03T23:56:26.718Z,4.53
2022-12-03T23:58:53.979Z,4.23
